Time;durP1;ratioP1;P1;durP2;ratioP2;P2;SDS_P1;SDS_P2;PMS_P1;PMS_P2;Temp;Humidity;BMP_temperature;BMP_pressure;BME280_temperature;BME280_humidity;BME280_pressure;Samples;Min_cycle;Max_cycle;Signal;HPM_P1;HPM_P2
2023/08/16 00:01:38;;;;;;;10.27;3.40;;;;;;;;;;5018437;28;20095;-66
2023/08/16 00:04:05;;;;;;;9.38;3.08;;;;;;;;;;5015270;28;20143;-66
2023/08/16 00:06:31;;;;;;;9.10;3.03;;;;;;;;;;5018457;28;20029;-66
2023/08/16 00:09:00;;;;;;;9.48;3.45;;;;;;;;;;5007646;28;20384;-66
2023/08/16 00:11:26;;;;;;;11.35;3.15;;;;;;;;;;5017886;28;20132;-67
2023/08/16 00:13:52;;;;;;;9.85;3.28;;;;;;;;;;5019390;28;20024;-66
2023/08/16 00:16:18;;;;;;;9.40;3.40;;;;;;;;;;5017302;28;20035;-66
2023/08/16 00:18:44;;;;;;;9.57;2.90;;;;;;;;;;5017684;28;20034;-65
2023/08/16 00:21:10;;;;;;;11.75;3.10;;;;;;;;;;5020029;28;20060;-66
2023/08/16 00:23:37;;;;;;;9.88;3.40;;;;;;;;;;5003730;28;20135;-66
2023/08/16 00:26:03;;;;;;;9.27;2.97;;;;;;;;;;5017968;28;20490;-66
2023/08/16 00:28:29;;;;;;;10.27;2.80;;;;;;;;;;5000076;28;20046;-66
2023/08/16 00:30:56;;;;;;;10.15;3.10;;;;;;;;;;5001508;28;20076;-66
2023/08/16 00:33:22;;;;;;;10.90;3.03;;;;;;;;;;5018988;28;20432;-66
2023/08/16 00:35:49;;;;;;;8.30;2.70;;;;;;;;;;5020727;28;20064;-66
2023/08/16 00:38:16;;;;;;;8.20;2.78;;;;;;;;;;5015954;28;20040;-66
2023/08/16 00:40:47;;;;;;;10.05;2.63;;;;;;;;;;5017456;28;20052;-64
2023/08/16 00:43:13;;;;;;;10.90;2.75;;;;;;;;;;5016382;28;20025;-66
2023/08/16 00:45:39;;;;;;;11.52;3.40;;;;;;;;;;5018352;28;20025;-66
2023/08/16 00:48:05;;;;;;;9.50;3.00;;;;;;;;;;4998740;28;20132;-66
2023/08/16 00:50:31;;;;;;;9.27;3.05;;;;;;;;;;5021150;28;20033;-67
2023/08/16 00:52:58;;;;;;;9.10;2.97;;;;;;;;;;5002477;28;20124;-66
2023/08/16 00:55:24;;;;;;;9.20;2.78;;;;;;;;;;4997565;28;20037;-65
2023/08/16 00:57:50;;;;;;;7.32;2.70;;;;;;;;;;5019072;28;20496;-65
2023/08/16 01:00:16;;;;;;;7.13;2.40;;;;;;;;;;5003284;28;20405;-65
2023/08/16 01:02:42;;;;;;;7.57;2.38;;;;;;;;;;5001844;28;20025;-65
2023/08/16 01:05:09;;;;;;;6.65;2.42;;;;;;;;;;5016788;28;20034;-65
2023/08/16 01:07:35;;;;;;;9.65;2.63;;;;;;;;;;4999744;28;20139;-66
2023/08/16 01:10:01;;;;;;;11.77;2.65;;;;;;;;;;5015044;28;20029;-65
2023/08/16 01:12:30;;;;;;;9.93;2.70;;;;;;;;;;5019544;28;20025;-65
2023/08/16 01:15:01;;;;;;;8.10;2.45;;;;;;;;;;5021859;28;20032;-65
2023/08/16 01:17:27;;;;;;;7.25;2.25;;;;;;;;;;5016306;28;20087;-66
2023/08/16 01:19:56;;;;;;;5.63;2.08;;;;;;;;;;5017395;28;20043;-65
2023/08/16 01:22:49;;;;;;;6.53;2.10;;;;;;;;;;5001191;28;20013;-65
2023/08/16 01:25:34;;;;;;;10.32;2.70;;;;;;;;;;4993784;28;20132;-65
2023/08/16 01:28:01;;;;;;;10.15;2.80;;;;;;;;;;5018808;28;20029;-65
2023/08/16 01:30:28;;;;;;;7.80;2.50;;;;;;;;;;5025448;28;20040;-65
2023/08/16 01:32:55;;;;;;;9.60;2.63;;;;;;;;;;5023324;28;20104;-65
2023/08/16 01:35:21;;;;;;;7.80;2.50;;;;;;;;;;5022153;28;20088;-65
2023/08/16 01:37:47;;;;;;;8.40;2.47;;;;;;;;;;5004900;28;20040;-65
2023/08/16 01:40:13;;;;;;;10.07;2.90;;;;;;;;;;5021613;28;20056;-68
2023/08/16 01:42:47;;;;;;;8.38;2.67;;;;;;;;;;5002671;28;20356;-66
2023/08/16 01:45:15;;;;;;;7.47;2.30;;;;;;;;;;5021392;28;20029;-68
2023/08/16 01:47:42;;;;;;;7.60;2.33;;;;;;;;;;5021068;28;20325;-65
2023/08/16 01:50:08;;;;;;;8.00;2.40;;;;;;;;;;5005407;28;20526;-65
2023/08/16 01:52:35;;;;;;;9.88;2.70;;;;;;;;;;5022010;28;20303;-65
2023/08/16 01:55:01;;;;;;;6.80;2.20;;;;;;;;;;5018585;28;20029;-66
2023/08/16 01:57:27;;;;;;;10.45;2.83;;;;;;;;;;5004836;28;20037;-65
2023/08/16 01:59:53;;;;;;;9.32;2.50;;;;;;;;;;5022983;28;20032;-66
2023/08/16 02:02:19;;;;;;;7.85;2.58;;;;;;;;;;5019928;28;20481;-66
2023/08/16 02:04:45;;;;;;;9.98;2.78;;;;;;;;;;5022904;28;20068;-66
2023/08/16 02:07:12;;;;;;;8.15;2.58;;;;;;;;;;5017491;28;20107;-66
2023/08/16 02:09:38;;;;;;;8.55;2.80;;;;;;;;;;5022344;28;20545;-66
2023/08/16 02:12:04;;;;;;;7.30;2.67;;;;;;;;;;5020525;28;20495;-66
2023/08/16 02:14:30;;;;;;;9.57;2.72;;;;;;;;;;5022585;28;20229;-66
2023/08/16 02:16:56;;;;;;;7.47;2.42;;;;;;;;;;5004877;28;20060;-66
2023/08/16 02:19:22;;;;;;;8.75;2.55;;;;;;;;;;5018221;28;20022;-67
2023/08/16 02:21:49;;;;;;;8.77;2.30;;;;;;;;;;5023345;28;20039;-66
2023/08/16 02:24:15;;;;;;;6.45;2.33;;;;;;;;;;5015913;28;20036;-66
2023/08/16 02:26:41;;;;;;;8.40;2.28;;;;;;;;;;5021623;28;20355;-66
2023/08/16 02:29:07;;;;;;;6.68;2.17;;;;;;;;;;5018937;28;20051;-66
2023/08/16 02:31:33;;;;;;;6.68;2.30;;;;;;;;;;5021161;28;20028;-66
2023/08/16 02:33:59;;;;;;;6.68;2.38;;;;;;;;;;5019605;28;20556;-66
2023/08/16 02:36:25;;;;;;;8.27;2.67;;;;;;;;;;5020004;28;20199;-65
2023/08/16 02:38:52;;;;;;;8.38;2.50;;;;;;;;;;5019240;28;20421;-66
2023/08/16 02:41:18;;;;;;;8.45;2.72;;;;;;;;;;5018176;28;20037;-66
2023/08/16 02:43:44;;;;;;;7.60;2.40;;;;;;;;;;5021754;28;20014;-66
2023/08/16 02:46:10;;;;;;;6.20;2.10;;;;;;;;;;5017670;28;20491;-66
2023/08/16 02:48:37;;;;;;;6.30;2.10;;;;;;;;;;5006427;28;20029;-66
2023/08/16 02:51:03;;;;;;;7.32;2.15;;;;;;;;;;5019512;28;20110;-66
2023/08/16 02:53:29;;;;;;;5.80;1.83;;;;;;;;;;5000902;28;20037;-66
2023/08/16 02:55:55;;;;;;;7.85;2.20;;;;;;;;;;5020139;28;20033;-66
2023/08/16 02:58:21;;;;;;;7.20;1.90;;;;;;;;;;5019323;28;20028;-65
2023/08/16 03:00:50;;;;;;;6.97;2.15;;;;;;;;;;5002094;28;20746;-66
2023/08/16 03:03:17;;;;;;;6.20;2.10;;;;;;;;;;5019051;28;20480;-66
2023/08/16 03:05:44;;;;;;;7.32;2.22;;;;;;;;;;5019242;28;20063;-66
2023/08/16 03:08:10;;;;;;;6.13;2.10;;;;;;;;;;5016494;28;20708;-65
2023/08/16 03:10:36;;;;;;;7.13;2.30;;;;;;;;;;5021919;28;20631;-66
2023/08/16 03:13:02;;;;;;;8.93;2.22;;;;;;;;;;5013384;28;20028;-66
2023/08/16 03:15:29;;;;;;;5.97;2.28;;;;;;;;;;5018123;28;20033;-66
2023/08/16 03:17:55;;;;;;;7.47;2.40;;;;;;;;;;5018342;28;20043;-65
2023/08/16 03:20:21;;;;;;;6.50;2.17;;;;;;;;;;5002032;28;20029;-66
2023/08/16 03:22:47;;;;;;;6.50;2.10;;;;;;;;;;5017381;28;20067;-65
2023/08/16 03:25:13;;;;;;;6.45;2.17;;;;;;;;;;5000810;28;20091;-66
2023/08/16 03:27:39;;;;;;;8.32;2.10;;;;;;;;;;5018612;28;20740;-66
2023/08/16 03:30:06;;;;;;;6.68;2.15;;;;;;;;;;5001660;28;20440;-66
2023/08/16 03:32:32;;;;;;;7.85;2.30;;;;;;;;;;5019750;28;20314;-66
2023/08/16 03:34:58;;;;;;;8.73;2.30;;;;;;;;;;5018765;28;20389;-66
2023/08/16 03:37:24;;;;;;;7.72;2.65;;;;;;;;;;5018037;28;20132;-66
2023/08/16 03:39:52;;;;;;;7.78;2.45;;;;;;;;;;5018144;28;20037;-66
2023/08/16 03:42:18;;;;;;;6.97;2.13;;;;;;;;;;5015067;28;20120;-66
2023/08/16 03:44:44;;;;;;;7.13;2.00;;;;;;;;;;4999592;28;20128;-66
2023/08/16 03:47:11;;;;;;;9.05;2.10;;;;;;;;;;5015096;28;20613;-65
2023/08/16 03:49:37;;;;;;;7.28;2.30;;;;;;;;;;5018173;28;20164;-67
2023/08/16 03:52:03;;;;;;;6.45;2.20;;;;;;;;;;5017985;28;20099;-66
2023/08/16 03:54:29;;;;;;;9.18;2.58;;;;;;;;;;5020848;28;20570;-66
2023/08/16 03:56:58;;;;;;;7.78;2.40;;;;;;;;;;5020423;28;20025;-66
2023/08/16 03:59:24;;;;;;;6.20;2.35;;;;;;;;;;5016034;28;20135;-66
2023/08/16 04:01:50;;;;;;;8.18;2.55;;;;;;;;;;5002485;28;20040;-66
2023/08/16 04:04:17;;;;;;;9.02;2.95;;;;;;;;;;5016994;28;20371;-65
2023/08/16 04:06:43;;;;;;;8.85;2.30;;;;;;;;;;5021279;28;20056;-66
2023/08/16 04:09:09;;;;;;;7.25;2.47;;;;;;;;;;5016989;28;20475;-66
2023/08/16 04:11:35;;;;;;;9.52;2.25;;;;;;;;;;5018500;28;20075;-66
2023/08/16 04:14:02;;;;;;;8.05;2.30;;;;;;;;;;5016037;28;20025;-66
2023/08/16 04:16:28;;;;;;;8.07;2.33;;;;;;;;;;5003454;28;20036;-65
2023/08/16 04:18:54;;;;;;;8.10;2.33;;;;;;;;;;5021007;28;20525;-66
2023/08/16 04:21:21;;;;;;;8.13;2.22;;;;;;;;;;5000349;28;20033;-67
2023/08/16 04:23:47;;;;;;;7.38;2.25;;;;;;;;;;5017933;28;20072;-67
2023/08/16 04:26:13;;;;;;;14.10;3.33;;;;;;;;;;5015340;28;20033;-65
2023/08/16 04:28:39;;;;;;;9.63;2.65;;;;;;;;;;5019582;28;20121;-65
2023/08/16 04:31:05;;;;;;;10.57;2.42;;;;;;;;;;5004083;28;20037;-65
2023/08/16 04:33:32;;;;;;;12.10;2.83;;;;;;;;;;5001685;28;20609;-65
2023/08/16 04:35:58;;;;;;;8.55;2.60;;;;;;;;;;5016854;28;20057;-65
2023/08/16 04:38:24;;;;;;;10.63;2.58;;;;;;;;;;5000040;28;20033;-64
2023/08/16 04:40:50;;;;;;;8.15;2.60;;;;;;;;;;5016955;28;20071;-66
2023/08/16 04:43:18;;;;;;;9.35;2.95;;;;;;;;;;4998490;28;20135;-65
2023/08/16 04:45:45;;;;;;;11.95;3.10;;;;;;;;;;5021027;28;20909;-65
2023/08/16 04:48:11;;;;;;;11.27;2.80;;;;;;;;;;5018434;28;20506;-68
2023/08/16 04:50:37;;;;;;;10.27;2.60;;;;;;;;;;5019235;28;20032;-66
2023/08/16 04:53:03;;;;;;;8.73;2.50;;;;;;;;;;5016190;28;20035;-66
2023/08/16 04:55:30;;;;;;;10.25;2.55;;;;;;;;;;5017876;28;20646;-66
2023/08/16 04:57:56;;;;;;;8.70;2.78;;;;;;;;;;5018378;28;20040;-66
2023/08/16 05:00:23;;;;;;;9.40;2.65;;;;;;;;;;4999291;28;20025;-66
2023/08/16 05:02:49;;;;;;;10.65;2.65;;;;;;;;;;5000558;28;20017;-66
2023/08/16 05:05:15;;;;;;;9.32;2.63;;;;;;;;;;5016617;28;20315;-66
2023/08/16 05:07:41;;;;;;;11.50;2.50;;;;;;;;;;5018682;28;20650;-65
2023/08/16 05:10:07;;;;;;;7.55;2.50;;;;;;;;;;5015665;28;20178;-68
2023/08/16 05:12:33;;;;;;;8.77;2.80;;;;;;;;;;5019585;28;20156;-65
2023/08/16 05:15:00;;;;;;;6.90;2.15;;;;;;;;;;5002970;28;20706;-67
2023/08/16 05:17:26;;;;;;;8.63;2.22;;;;;;;;;;5022890;28;20029;-67
2023/08/16 05:19:52;;;;;;;9.32;2.03;;;;;;;;;;5001188;28;20064;-65
2023/08/16 05:22:19;;;;;;;8.00;2.00;;;;;;;;;;5018980;28;20021;-67
2023/08/16 05:24:45;;;;;;;7.85;2.28;;;;;;;;;;5016201;28;20283;-66
2023/08/16 05:27:14;;;;;;;7.63;2.35;;;;;;;;;;5012412;28;20026;-66
2023/08/16 05:29:41;;;;;;;9.40;2.35;;;;;;;;;;5020318;28;20531;-66
2023/08/16 05:32:07;;;;;;;12.27;2.50;;;;;;;;;;5018814;28;20388;-67
2023/08/16 05:34:33;;;;;;;5.78;1.83;;;;;;;;;;5018384;28;20037;-67
2023/08/16 05:36:59;;;;;;;8.32;2.10;;;;;;;;;;5018006;28;20041;-66
2023/08/16 05:39:26;;;;;;;11.00;2.40;;;;;;;;;;5007540;28;20025;-66
2023/08/16 05:41:52;;;;;;;7.43;2.00;;;;;;;;;;5002519;28;20557;-65
2023/08/16 05:44:18;;;;;;;6.20;2.13;;;;;;;;;;5017739;28;20025;-65
2023/08/16 05:46:44;;;;;;;9.77;2.55;;;;;;;;;;5022833;28;20119;-66
2023/08/16 05:49:11;;;;;;;7.50;2.15;;;;;;;;;;5016969;28;20063;-65
2023/08/16 05:51:37;;;;;;;8.18;2.25;;;;;;;;;;5002054;28;20032;-65
2023/08/16 05:54:03;;;;;;;7.03;1.98;;;;;;;;;;5016224;28;20033;-65
2023/08/16 05:56:29;;;;;;;7.55;2.20;;;;;;;;;;5022441;28;20109;-67
2023/08/16 05:58:55;;;;;;;7.50;1.90;;;;;;;;;;5018457;28;20115;-65
2023/08/16 06:01:22;;;;;;;9.55;2.17;;;;;;;;;;5017021;28;20549;-65
2023/08/16 06:03:48;;;;;;;10.07;1.98;;;;;;;;;;5019640;28;20033;-66
2023/08/16 06:06:14;;;;;;;13.05;2.85;;;;;;;;;;5000590;28;20491;-65
2023/08/16 06:08:40;;;;;;;12.05;2.70;;;;;;;;;;5021262;28;20333;-65
2023/08/16 06:11:08;;;;;;;10.07;2.25;;;;;;;;;;5018567;28;20122;-66
2023/08/16 06:13:34;;;;;;;8.65;2.40;;;;;;;;;;5020608;28;20134;-65
2023/08/16 06:16:00;;;;;;;17.10;3.03;;;;;;;;;;5021321;28;20548;-66
2023/08/16 06:18:27;;;;;;;11.27;2.65;;;;;;;;;;5019630;28;20558;-65
2023/08/16 06:20:53;;;;;;;9.57;2.50;;;;;;;;;;5003888;28;20722;-65
2023/08/16 06:23:19;;;;;;;10.13;2.30;;;;;;;;;;5016485;28;20503;-66
2023/08/16 06:25:45;;;;;;;14.02;3.10;;;;;;;;;;5015017;28;20419;-65
2023/08/16 06:28:11;;;;;;;13.55;3.05;;;;;;;;;;5013533;28;20037;-65
2023/08/16 06:30:37;;;;;;;11.30;2.60;;;;;;;;;;5019066;28;20127;-66
2023/08/16 06:33:04;;;;;;;13.25;2.92;;;;;;;;;;5019060;28;20123;-65
2023/08/16 06:35:32;;;;;;;11.48;3.00;;;;;;;;;;5020077;28;20080;-66
2023/08/16 06:37:58;;;;;;;10.55;2.40;;;;;;;;;;5014870;28;20034;-65
2023/08/16 06:40:24;;;;;;;11.00;3.42;;;;;;;;;;5017352;28;20134;-65
2023/08/16 06:42:50;;;;;;;9.90;2.60;;;;;;;;;;5018076;28;20410;-65
2023/08/16 06:45:16;;;;;;;15.10;2.97;;;;;;;;;;5018224;28;20030;-66
2023/08/16 06:47:43;;;;;;;9.70;2.45;;;;;;;;;;5019129;28;20032;-65
2023/08/16 06:50:09;;;;;;;13.32;2.80;;;;;;;;;;5015390;28;20037;-66
2023/08/16 06:52:35;;;;;;;12.88;2.50;;;;;;;;;;5018740;28;20060;-66
2023/08/16 06:55:02;;;;;;;11.13;2.28;;;;;;;;;;5016699;28;20072;-65
2023/08/16 06:57:28;;;;;;;8.73;2.28;;;;;;;;;;5001527;28;20131;-66
2023/08/16 06:59:54;;;;;;;9.10;3.00;;;;;;;;;;5004794;28;20035;-65
2023/08/16 07:02:20;;;;;;;9.75;2.70;;;;;;;;;;5016444;28;20806;-65
2023/08/16 07:04:46;;;;;;;12.70;2.67;;;;;;;;;;5020369;28;20447;-65
2023/08/16 07:07:13;;;;;;;9.35;2.17;;;;;;;;;;4997442;28;20030;-65
2023/08/16 07:09:39;;;;;;;13.23;2.90;;;;;;;;;;5020194;28;20452;-66
2023/08/16 07:12:05;;;;;;;11.00;2.45;;;;;;;;;;4995316;28;20524;-65
2023/08/16 07:14:31;;;;;;;13.75;4.00;;;;;;;;;;5014247;28;20033;-67
2023/08/16 07:16:58;;;;;;;15.45;5.20;;;;;;;;;;4996518;28;20060;-66
2023/08/16 07:19:24;;;;;;;9.73;3.70;;;;;;;;;;5014242;28;20029;-67
2023/08/16 07:21:50;;;;;;;11.82;3.58;;;;;;;;;;5019416;28;20069;-67
2023/08/16 07:24:16;;;;;;;12.68;3.35;;;;;;;;;;5010966;28;20033;-65
2023/08/16 07:26:42;;;;;;;13.35;3.33;;;;;;;;;;5015006;28;20021;-67
2023/08/16 07:29:08;;;;;;;16.42;2.90;;;;;;;;;;5015886;28;20063;-67
2023/08/16 07:31:34;;;;;;;15.95;2.70;;;;;;;;;;5020537;28;20494;-67
2023/08/16 07:34:01;;;;;;;10.25;2.95;;;;;;;;;;5014595;28;20232;-68
2023/08/16 07:36:27;;;;;;;14.52;3.00;;;;;;;;;;5019087;28;20132;-67
2023/08/16 07:38:54;;;;;;;11.05;2.58;;;;;;;;;;4998908;28;20037;-67
2023/08/16 07:41:20;;;;;;;11.88;2.90;;;;;;;;;;5016858;28;22681;-67
2023/08/16 07:43:46;;;;;;;8.43;2.75;;;;;;;;;;5017075;28;20572;-67
2023/08/16 07:46:12;;;;;;;10.65;2.80;;;;;;;;;;5019246;28;20029;-67
2023/08/16 07:48:38;;;;;;;9.88;2.50;;;;;;;;;;5017710;28;20411;-67
2023/08/16 07:51:04;;;;;;;9.82;2.53;;;;;;;;;;5011255;28;20030;-67
2023/08/16 07:53:31;;;;;;;9.60;2.92;;;;;;;;;;4999842;28;20033;-67
2023/08/16 07:55:57;;;;;;;13.80;2.72;;;;;;;;;;5021848;28;20202;-67
2023/08/16 07:58:23;;;;;;;10.65;2.63;;;;;;;;;;4998280;28;20152;-67
2023/08/16 08:00:54;;;;;;;11.60;2.40;;;;;;;;;;5001334;28;20099;-67
2023/08/16 08:03:21;;;;;;;13.35;2.50;;;;;;;;;;5016836;28;21916;-67
2023/08/16 08:05:47;;;;;;;10.18;2.70;;;;;;;;;;5005542;28;20120;-67
2023/08/16 08:08:14;;;;;;;9.70;2.50;;;;;;;;;;5019799;28;20341;-67
2023/08/16 08:10:44;;;;;;;11.50;2.30;;;;;;;;;;5015515;28;20029;-67
2023/08/16 08:13:10;;;;;;;11.27;2.50;;;;;;;;;;5015485;28;20037;-67
2023/08/16 08:15:36;;;;;;;9.00;2.22;;;;;;;;;;5020203;28;20025;-67
2023/08/16 08:18:03;;;;;;;6.63;2.20;;;;;;;;;;5017117;28;20354;-65
2023/08/16 08:20:29;;;;;;;10.18;2.47;;;;;;;;;;5018940;28;20024;-67
2023/08/16 08:22:55;;;;;;;10.35;2.30;;;;;;;;;;5017350;28;20030;-67
2023/08/16 08:25:21;;;;;;;9.63;2.30;;;;;;;;;;4998643;28;20439;-67
2023/08/16 08:27:47;;;;;;;9.68;2.35;;;;;;;;;;5014564;28;20035;-65
2023/08/16 08:30:15;;;;;;;9.80;2.33;;;;;;;;;;5012648;28;20450;-67
2023/08/16 08:32:41;;;;;;;8.88;2.42;;;;;;;;;;5020480;28;20128;-67
2023/08/16 08:35:08;;;;;;;7.90;2.15;;;;;;;;;;5011594;28;20045;-67
2023/08/16 08:37:34;;;;;;;8.52;2.47;;;;;;;;;;5021801;28;20033;-68
2023/08/16 08:40:00;;;;;;;10.27;2.40;;;;;;;;;;5022864;28;20175;-67
2023/08/16 08:42:28;;;;;;;9.48;2.40;;;;;;;;;;5022502;28;20033;-67
2023/08/16 08:44:55;;;;;;;8.30;2.15;;;;;;;;;;5005598;28;20147;-66
2023/08/16 08:47:21;;;;;;;7.38;1.88;;;;;;;;;;5017748;28;20509;-67
2023/08/16 08:49:49;;;;;;;8.73;2.10;;;;;;;;;;5023410;28;20274;-67
2023/08/16 08:52:16;;;;;;;11.20;2.42;;;;;;;;;;5019729;28;20069;-66
2023/08/16 08:54:42;;;;;;;8.35;2.25;;;;;;;;;;5019550;28;20277;-67
2023/08/16 08:57:10;;;;;;;9.63;2.25;;;;;;;;;;5000522;28;20068;-67
2023/08/16 08:59:39;;;;;;;8.07;2.30;;;;;;;;;;5021445;28;20060;-66
2023/08/16 09:02:05;;;;;;;10.60;2.40;;;;;;;;;;5025369;28;20170;-66
2023/08/16 09:04:33;;;;;;;8.10;2.40;;;;;;;;;;5022926;28;20542;-66
2023/08/16 09:07:03;;;;;;;11.13;2.50;;;;;;;;;;5005762;28;20545;-66
2023/08/16 09:09:29;;;;;;;8.63;2.20;;;;;;;;;;5019437;28;20029;-66
2023/08/16 09:11:56;;;;;;;9.07;2.40;;;;;;;;;;5004505;28;20553;-65
2023/08/16 09:14:22;;;;;;;9.50;2.08;;;;;;;;;;5018770;28;20063;-66
2023/08/16 09:16:48;;;;;;;8.90;2.03;;;;;;;;;;5019232;28;20574;-66
2023/08/16 09:19:15;;;;;;;9.23;2.60;;;;;;;;;;5019763;28;20035;-67
2023/08/16 09:21:42;;;;;;;7.45;2.30;;;;;;;;;;5021856;28;20219;-67
2023/08/16 09:24:08;;;;;;;6.70;2.30;;;;;;;;;;5021285;28;20390;-67
2023/08/16 09:26:36;;;;;;;9.45;2.40;;;;;;;;;;5003664;28;20029;-67
2023/08/16 09:29:03;;;;;;;7.80;2.30;;;;;;;;;;5021151;28;20049;-67
2023/08/16 09:31:29;;;;;;;7.90;2.35;;;;;;;;;;5021161;28;20326;-67
2023/08/16 09:33:58;;;;;;;8.75;2.42;;;;;;;;;;5021858;28;20037;-67
2023/08/16 09:36:28;;;;;;;8.68;2.45;;;;;;;;;;5019275;28;20048;-66
2023/08/16 09:38:59;;;;;;;12.07;2.20;;;;;;;;;;5021432;28;20022;-68
2023/08/16 09:41:26;;;;;;;10.40;2.05;;;;;;;;;;5023387;28;20090;-66
2023/08/16 09:43:53;;;;;;;10.25;2.22;;;;;;;;;;5020253;28;20057;-66
2023/08/16 09:46:20;;;;;;;10.60;2.30;;;;;;;;;;5016701;28;20067;-66
2023/08/16 09:48:47;;;;;;;9.02;2.20;;;;;;;;;;5014976;28;20021;-65
2023/08/16 09:51:13;;;;;;;9.88;2.30;;;;;;;;;;5020125;28;20384;-68
2023/08/16 09:53:47;;;;;;;8.98;2.17;;;;;;;;;;5021407;28;20036;-68
2023/08/16 09:56:14;;;;;;;8.25;2.53;;;;;;;;;;5017926;28;20574;-67
2023/08/16 09:58:40;;;;;;;8.40;2.10;;;;;;;;;;5023195;28;20033;-67
2023/08/16 10:01:07;;;;;;;13.95;3.00;;;;;;;;;;5021039;28;20324;-67
2023/08/16 10:03:33;;;;;;;12.88;2.80;;;;;;;;;;5005145;28;20013;-66
2023/08/16 10:06:00;;;;;;;8.65;2.67;;;;;;;;;;5021677;28;20051;-67
2023/08/16 10:08:27;;;;;;;10.73;2.60;;;;;;;;;;5020506;28;20338;-66
2023/08/16 10:10:57;;;;;;;8.02;2.30;;;;;;;;;;5022225;28;20033;-67
2023/08/16 10:13:24;;;;;;;10.45;2.63;;;;;;;;;;5019969;28;20430;-67
2023/08/16 10:15:53;;;;;;;9.13;2.65;;;;;;;;;;5021553;28;20032;-66
2023/08/16 10:18:21;;;;;;;12.95;2.80;;;;;;;;;;5006682;28;20226;-67
2023/08/16 10:20:49;;;;;;;8.70;2.08;;;;;;;;;;5017735;28;20550;-67
2023/08/16 10:23:19;;;;;;;10.50;2.45;;;;;;;;;;5016548;28;20025;-66
2023/08/16 10:25:46;;;;;;;10.43;2.42;;;;;;;;;;5025480;28;20419;-69
2023/08/16 10:28:13;;;;;;;9.95;2.60;;;;;;;;;;5007015;28;20095;-66
2023/08/16 10:30:40;;;;;;;8.23;2.05;;;;;;;;;;5021853;28;20034;-66
2023/08/16 10:33:09;;;;;;;8.13;2.33;;;;;;;;;;5003032;28;20301;-66
2023/08/16 10:35:35;;;;;;;8.10;2.10;;;;;;;;;;5019247;28;20053;-66
2023/08/16 10:38:02;;;;;;;9.95;2.03;;;;;;;;;;5018465;28;20136;-69
2023/08/16 10:40:29;;;;;;;8.57;2.10;;;;;;;;;;5004040;28;20375;-66
2023/08/16 10:42:56;;;;;;;11.18;2.30;;;;;;;;;;5022613;28;20077;-65
2023/08/16 10:45:23;;;;;;;10.68;2.40;;;;;;;;;;5001327;28;20466;-66
2023/08/16 10:47:49;;;;;;;12.20;2.50;;;;;;;;;;5020715;28;20487;-66
2023/08/16 10:50:15;;;;;;;7.82;2.13;;;;;;;;;;5024539;28;20110;-66
2023/08/16 10:52:45;;;;;;;8.75;2.13;;;;;;;;;;5001420;28;20538;-66
2023/08/16 10:55:14;;;;;;;7.50;2.10;;;;;;;;;;5022594;28;20041;-66
2023/08/16 10:57:51;;;;;;;9.25;2.30;;;;;;;;;;5020043;28;20037;-66
2023/08/16 11:00:18;;;;;;;10.48;2.03;;;;;;;;;;5023835;28;20546;-68
2023/08/16 11:02:47;;;;;;;9.35;2.42;;;;;;;;;;5024634;28;20491;-67
2023/08/16 11:05:20;;;;;;;11.25;1.95;;;;;;;;;;5002879;28;20080;-69
2023/08/16 11:07:47;;;;;;;7.55;2.08;;;;;;;;;;5005733;28;20013;-66
2023/08/16 11:10:13;;;;;;;11.45;2.40;;;;;;;;;;4993775;28;20041;-68
2023/08/16 11:12:40;;;;;;;11.13;2.30;;;;;;;;;;5010314;28;20021;-67
2023/08/16 11:15:06;;;;;;;8.68;2.17;;;;;;;;;;5008711;28;20029;-67
2023/08/16 11:17:41;;;;;;;7.50;1.90;;;;;;;;;;5012670;28;20056;-67
2023/08/16 11:20:09;;;;;;;7.68;1.80;;;;;;;;;;5008495;28;20036;-67
2023/08/16 11:22:36;;;;;;;6.90;1.83;;;;;;;;;;5014535;28;20479;-67
2023/08/16 11:25:02;;;;;;;9.02;2.38;;;;;;;;;;5011926;28;20698;-68
2023/08/16 11:27:29;;;;;;;11.25;2.78;;;;;;;;;;5015294;28;20033;-67
2023/08/16 11:29:55;;;;;;;8.70;2.40;;;;;;;;;;5010172;28;20041;-66
2023/08/16 11:32:38;;;;;;;8.35;2.20;;;;;;;;;;4992559;28;20036;-67
2023/08/16 11:35:08;;;;;;;8.05;2.40;;;;;;;;;;5011712;28;20049;-66
2023/08/16 11:37:35;;;;;;;8.25;2.33;;;;;;;;;;5018304;28;20025;-67
2023/08/16 11:40:04;;;;;;;10.35;2.83;;;;;;;;;;5015125;28;20033;-68
2023/08/16 11:42:30;;;;;;;8.20;2.42;;;;;;;;;;5015393;28;20720;-67
2023/08/16 11:44:57;;;;;;;9.15;3.42;;;;;;;;;;5017351;28;20033;-67
2023/08/16 11:47:26;;;;;;;9.73;2.85;;;;;;;;;;5017615;28;20115;-67
2023/08/16 11:49:52;;;;;;;8.45;2.03;;;;;;;;;;5019365;28;20033;-68
2023/08/16 11:52:25;;;;;;;9.07;2.65;;;;;;;;;;5012164;28;20673;-67
2023/08/16 11:55:05;;;;;;;12.30;3.42;;;;;;;;;;5013133;28;20041;-68
2023/08/16 11:57:31;;;;;;;10.93;2.67;;;;;;;;;;4990697;28;20028;-68
2023/08/16 11:59:57;;;;;;;8.30;2.38;;;;;;;;;;5011410;28;20041;-68
2023/08/16 12:02:24;;;;;;;9.60;2.88;;;;;;;;;;4993413;28;20025;-68
2023/08/16 12:04:52;;;;;;;9.02;2.30;;;;;;;;;;5006687;28;20517;-67
2023/08/16 12:07:18;;;;;;;9.95;2.60;;;;;;;;;;5011602;28;20548;-67
2023/08/16 12:09:44;;;;;;;9.48;2.35;;;;;;;;;;4993286;28;20025;-68
2023/08/16 12:12:10;;;;;;;10.25;2.90;;;;;;;;;;5008941;28;20108;-68
2023/08/16 12:14:37;;;;;;;10.20;2.60;;;;;;;;;;4988285;28;20026;-67
2023/08/16 12:17:03;;;;;;;12.52;2.97;;;;;;;;;;4989909;28;20116;-67
2023/08/16 12:19:29;;;;;;;12.20;2.58;;;;;;;;;;5012758;28;20032;-67
2023/08/16 12:21:55;;;;;;;8.95;2.40;;;;;;;;;;5010157;28;20550;-67
2023/08/16 12:24:21;;;;;;;9.40;2.40;;;;;;;;;;5007292;28;20588;-67
2023/08/16 12:26:48;;;;;;;12.07;2.50;;;;;;;;;;4993295;28;20045;-67
2023/08/16 12:29:14;;;;;;;8.82;2.70;;;;;;;;;;4988183;28;20033;-67
2023/08/16 12:31:42;;;;;;;8.43;2.40;;;;;;;;;;4992697;28;20163;-67
2023/08/16 12:34:08;;;;;;;8.02;2.13;;;;;;;;;;5007649;28;20926;-67
2023/08/16 12:36:34;;;;;;;7.88;1.73;;;;;;;;;;5008512;28;20056;-67
2023/08/16 12:39:01;;;;;;;7.35;1.80;;;;;;;;;;5008115;28;20298;-67
2023/08/16 12:41:27;;;;;;;7.45;1.80;;;;;;;;;;4992856;28;20039;-67
2023/08/16 12:43:53;;;;;;;11.07;2.70;;;;;;;;;;5010991;28;20134;-67
2023/08/16 12:46:19;;;;;;;12.55;2.58;;;;;;;;;;4990228;28;20330;-67
2023/08/16 12:48:48;;;;;;;8.82;2.70;;;;;;;;;;5012001;28;20021;-67
2023/08/16 12:51:14;;;;;;;10.15;2.70;;;;;;;;;;5003699;28;20760;-66
2023/08/16 12:53:41;;;;;;;8.95;2.10;;;;;;;;;;5009412;28;20141;-67
2023/08/16 12:56:07;;;;;;;8.07;2.20;;;;;;;;;;5007210;28;20441;-67
2023/08/16 12:58:34;;;;;;;13.63;2.85;;;;;;;;;;5011639;28;20145;-67
2023/08/16 13:01:00;;;;;;;7.80;2.40;;;;;;;;;;5008692;28;20564;-67
2023/08/16 13:03:26;;;;;;;7.47;2.30;;;;;;;;;;4994237;28;20032;-67
2023/08/16 13:05:52;;;;;;;9.15;2.78;;;;;;;;;;5009687;28;20044;-67
2023/08/16 13:08:21;;;;;;;10.95;2.60;;;;;;;;;;5003035;28;20251;-66
2023/08/16 13:10:47;;;;;;;11.55;2.80;;;;;;;;;;5009409;28;20263;-67
2023/08/16 13:13:13;;;;;;;11.32;2.78;;;;;;;;;;5007988;28;20273;-67
2023/08/16 13:15:39;;;;;;;10.00;2.63;;;;;;;;;;5008956;28;20716;-66
2023/08/16 13:18:05;;;;;;;9.52;2.60;;;;;;;;;;5006239;28;20171;-67
2023/08/16 13:20:31;;;;;;;11.00;2.75;;;;;;;;;;5011387;28;20578;-67
2023/08/16 13:22:57;;;;;;;11.52;3.00;;;;;;;;;;5009156;28;20025;-67
2023/08/16 13:25:23;;;;;;;9.45;2.83;;;;;;;;;;5009500;28;20035;-67
2023/08/16 13:27:50;;;;;;;10.43;2.60;;;;;;;;;;5015866;28;20297;-67
2023/08/16 13:30:16;;;;;;;8.30;2.50;;;;;;;;;;5010949;28;20041;-67
2023/08/16 13:32:42;;;;;;;8.07;2.58;;;;;;;;;;5014475;28;20329;-67
2023/08/16 13:35:08;;;;;;;10.68;3.10;;;;;;;;;;5010381;28;20116;-66
2023/08/16 13:37:35;;;;;;;10.77;2.92;;;;;;;;;;5015201;28;20136;-67
2023/08/16 13:40:01;;;;;;;11.85;2.83;;;;;;;;;;5013262;28;20025;-68
2023/08/16 13:42:27;;;;;;;9.10;2.78;;;;;;;;;;5012081;28;20055;-67
2023/08/16 13:44:53;;;;;;;10.38;2.65;;;;;;;;;;5013078;28;20040;-66
2023/08/16 13:47:19;;;;;;;9.90;2.78;;;;;;;;;;5008803;28;20414;-66
2023/08/16 13:49:46;;;;;;;8.18;2.83;;;;;;;;;;5014034;28;20401;-67
2023/08/16 13:52:12;;;;;;;12.38;4.18;;;;;;;;;;4997011;28;20041;-67
2023/08/16 13:54:38;;;;;;;10.90;3.33;;;;;;;;;;5015397;28;20242;-67
2023/08/16 13:57:04;;;;;;;9.95;2.83;;;;;;;;;;5012865;28;20078;-67
2023/08/16 13:59:30;;;;;;;9.88;2.78;;;;;;;;;;5012325;28;20898;-66
2023/08/16 14:01:57;;;;;;;8.95;2.60;;;;;;;;;;5011494;28;20721;-69
2023/08/16 14:04:23;;;;;;;10.77;3.03;;;;;;;;;;4993409;28;20650;-67
2023/08/16 14:06:49;;;;;;;9.45;2.70;;;;;;;;;;5009691;28;21356;-67
2023/08/16 14:09:15;;;;;;;10.52;2.97;;;;;;;;;;5008456;28;20098;-66
2023/08/16 14:11:41;;;;;;;8.43;2.60;;;;;;;;;;5011183;28;20049;-68
2023/08/16 14:14:07;;;;;;;9.10;2.67;;;;;;;;;;5013035;28;20758;-67
2023/08/16 14:16:34;;;;;;;9.43;2.45;;;;;;;;;;5008617;28;20342;-67
2023/08/16 14:19:03;;;;;;;13.30;4.05;;;;;;;;;;5014267;28;20049;-66
2023/08/16 14:21:29;;;;;;;9.63;3.08;;;;;;;;;;4991535;28;20056;-67
2023/08/16 14:23:55;;;;;;;10.82;2.70;;;;;;;;;;5008332;28;20525;-67
2023/08/16 14:26:21;;;;;;;10.00;2.63;;;;;;;;;;5013649;28;21254;-67
2023/08/16 14:28:48;;;;;;;9.35;2.75;;;;;;;;;;5009307;28;21116;-67
2023/08/16 14:31:14;;;;;;;8.70;2.72;;;;;;;;;;5008017;28;20025;-67
2023/08/16 14:33:40;;;;;;;11.55;3.25;;;;;;;;;;5014205;28;20369;-68
2023/08/16 14:36:07;;;;;;;11.80;3.15;;;;;;;;;;5009394;28;20624;-67